Time;durP1;ratioP1;P1;durP2;ratioP2;P2;SDS_P1;SDS_P2;PMS_P1;PMS_P2;Temp;Humidity;BMP_temperature;BMP_pressure;BME280_temperature;BME280_humidity;BME280_pressure;Samples;Min_cycle;Max_cycle;Signal;HPM_P1;HPM_P2
2021/12/03 00:00:47;;;;;;;28.05;16.50;;;2.60;99.90;;;;;;5019760;28;20108;-91
2021/12/03 00:03:13;;;;;;;25.88;16.20;;;2.60;99.90;;;;;;5020933;28;20029;-92
2021/12/03 00:05:39;;;;;;;29.02;17.65;;;2.60;99.90;;;;;;5019946;28;20030;-93
2021/12/03 00:08:05;;;;;;;29.73;17.50;;;2.70;99.90;;;;;;5004043;28;20395;-92
2021/12/03 00:10:31;;;;;;;34.17;18.67;;;2.70;99.90;;;;;;5019699;28;20156;-92
2021/12/03 00:13:00;;;;;;;30.92;16.75;;;2.70;99.90;;;;;;5019828;28;20488;-92
2021/12/03 00:15:27;;;;;;;29.20;16.52;;;2.60;99.90;;;;;;5019685;28;20025;-92
2021/12/03 00:17:54;;;;;;;26.05;16.58;;;2.70;99.90;;;;;;5019630;28;20029;-92
2021/12/03 00:20:21;;;;;;;26.98;15.77;;;2.70;99.90;;;;;;5019482;28;20021;-93
2021/12/03 00:22:50;;;;;;;25.83;16.02;;;2.70;99.90;;;;;;5019709;28;20022;-93
2021/12/03 00:25:16;;;;;;;21.92;15.25;;;2.70;99.90;;;;;;5020724;28;20022;-93
2021/12/03 00:27:42;;;;;;;27.23;15.60;;;2.70;99.90;;;;;;5019535;28;20116;-93
2021/12/03 00:30:11;;;;;;;23.30;14.70;;;2.60;99.90;;;;;;5020322;28;20495;-93
2021/12/03 00:32:37;;;;;;;29.63;15.93;;;2.60;99.90;;;;;;5019058;28;20033;-93
2021/12/03 00:35:05;;;;;;;25.75;15.48;;;2.60;99.90;;;;;;5019294;28;20033;-93
2021/12/03 00:37:31;;;;;;;24.40;14.35;;;2.60;99.90;;;;;;5019370;28;20030;-93
2021/12/03 00:39:56;;;;;;;22.10;13.60;;;2.70;99.90;;;;;;5019093;28;20083;-94
2021/12/03 00:42:23;;;;;;;17.27;12.88;;;2.60;99.90;;;;;;5019476;28;20021;-95
2021/12/03 00:44:54;;;;;;;26.10;15.57;;;2.70;99.90;;;;;;5020030;28;20022;-94
2021/12/03 00:47:21;;;;;;;19.58;13.10;;;2.70;99.90;;;;;;5019961;28;20468;-95
2021/12/03 00:49:47;;;;;;;20.63;13.23;;;2.70;99.90;;;;;;5019136;28;20031;-95
2021/12/03 00:52:13;;;;;;;19.60;12.18;;;2.70;99.90;;;;;;5019083;28;20033;-95
2021/12/03 00:54:39;;;;;;;18.92;12.57;;;2.70;99.90;;;;;;5019118;28;20075;-95
2021/12/03 00:57:05;;;;;;;16.73;11.70;;;2.60;99.90;;;;;;5019026;28;20473;-96
2021/12/03 00:59:31;;;;;;;20.88;12.95;;;2.60;99.90;;;;;;5018750;28;20032;-95
2021/12/03 01:01:57;;;;;;;17.35;12.82;;;2.60;99.90;;;;;;5018821;28;20382;-96
2021/12/03 01:04:22;;;;;;;22.30;12.32;;;2.60;99.90;;;;;;5018796;28;20021;-95
2021/12/03 01:06:48;;;;;;;19.00;12.23;;;2.60;99.90;;;;;;5019651;28;20056;-94
2021/12/03 01:09:15;;;;;;;20.08;12.68;;;2.60;99.90;;;;;;5018908;28;20049;-94
2021/12/03 01:11:41;;;;;;;19.38;12.07;;;2.60;99.90;;;;;;5018374;28;20045;-95
2021/12/03 01:14:07;;;;;;;17.48;11.73;;;2.60;99.90;;;;;;5018526;28;20057;-94
2021/12/03 01:16:34;;;;;;;21.40;13.38;;;2.60;99.90;;;;;;5018723;28;20032;-94
2021/12/03 01:19:00;;;;;;;22.08;14.60;;;2.60;99.90;;;;;;5018709;28;20030;-95
2021/12/03 01:21:26;;;;;;;29.35;18.23;;;2.60;99.90;;;;;;5018357;28;20036;-94
2021/12/03 01:23:53;;;;;;;22.63;14.52;;;2.60;99.90;;;;;;5018454;28;20025;-95
2021/12/03 01:26:20;;;;;;;44.90;23.38;;;2.50;99.90;;;;;;5018383;28;20113;-93
2021/12/03 01:28:47;;;;;;;21.52;13.55;;;2.50;99.90;;;;;;5019827;28;20022;-94
2021/12/03 01:31:13;;;;;;;23.20;13.40;;;2.50;99.90;;;;;;5018233;28;20061;-94
2021/12/03 01:33:39;;;;;;;21.77;12.30;;;2.60;99.90;;;;;;5018273;28;20025;-94
2021/12/03 01:36:05;;;;;;;23.30;13.88;;;2.60;99.90;;;;;;5018128;28;20028;-94
2021/12/03 01:38:31;;;;;;;28.75;16.25;;;2.60;99.90;;;;;;5018120;28;20021;-93
2021/12/03 01:40:57;;;;;;;28.77;15.82;;;2.60;99.90;;;;;;5019056;28;20065;-94
2021/12/03 01:43:25;;;;;;;29.90;16.00;;;2.60;99.90;;;;;;5018286;28;20052;-94
2021/12/03 01:46:02;;;;;;;27.90;16.10;;;2.60;99.90;;;;;;5017762;28;20036;-94
2021/12/03 01:48:28;;;;;;;25.92;16.40;;;2.60;99.90;;;;;;5018526;28;20095;-94
2021/12/03 01:50:55;;;;;;;26.17;16.75;;;2.60;99.90;;;;;;5019670;28;20056;-95
2021/12/03 01:53:24;;;;;;;32.60;18.75;;;2.60;99.90;;;;;;5017920;28;20546;-94
2021/12/03 01:55:51;;;;;;;34.65;19.67;;;2.60;99.90;;;;;;5017767;28;20112;-94
2021/12/03 01:58:17;;;;;;;39.55;21.10;;;2.50;99.90;;;;;;5017805;28;20029;-95
2021/12/03 02:00:58;;;;;;;36.28;21.08;;;2.50;99.90;;;;;;5035473;28;20158;-95
2021/12/03 02:03:28;;;;;;;30.83;18.33;;;2.50;99.90;;;;;;5017997;28;20022;-94
2021/12/03 02:05:55;;;;;;;35.97;18.83;;;2.50;99.90;;;;;;5018088;28;20064;-95
2021/12/03 02:08:21;;;;;;;42.30;23.65;;;2.50;99.90;;;;;;5017630;28;20028;-94
2021/12/03 02:10:46;;;;;;;70.78;39.25;;;2.50;99.90;;;;;;5018412;28;20053;-94
2021/12/03 02:13:13;;;;;;;70.47;40.13;;;2.50;99.90;;;;;;5018140;28;20468;-94
2021/12/03 02:15:41;;;;;;;62.60;35.33;;;2.50;99.90;;;;;;5017385;28;20052;-94
2021/12/03 02:18:08;;;;;;;44.88;26.48;;;2.50;99.90;;;;;;5017292;28;20027;-94
2021/12/03 02:20:35;;;;;;;34.05;21.05;;;2.50;99.90;;;;;;5017320;28;20108;-95
2021/12/03 02:23:02;;;;;;;34.08;18.00;;;2.50;99.90;;;;;;5017444;28;20021;-95
2021/12/03 02:25:28;;;;;;;31.15;18.13;;;2.50;99.90;;;;;;5017388;28;20062;-95
2021/12/03 02:27:57;;;;;;;32.20;19.08;;;2.50;99.90;;;;;;5017639;28;20055;-96
2021/12/03 02:30:24;;;;;;;34.00;20.95;;;2.50;99.90;;;;;;5017211;28;20037;-95
2021/12/03 02:32:51;;;;;;;34.92;18.95;;;2.50;99.90;;;;;;5018980;28;20057;-95
2021/12/03 02:35:19;;;;;;;34.92;20.73;;;2.50;99.90;;;;;;5017120;28;20033;-95
2021/12/03 02:37:46;;;;;;;37.80;23.02;;;2.50;99.90;;;;;;5017087;28;20056;-95
2021/12/03 02:40:14;;;;;;;37.30;22.48;;;2.50;99.90;;;;;;5017026;28;20029;-94
2021/12/03 02:42:41;;;;;;;37.97;22.10;;;2.50;99.90;;;;;;5017224;28;20112;-94
2021/12/03 02:45:08;;;;;;;28.05;16.88;;;2.40;99.90;;;;;;5017031;28;20057;-94
2021/12/03 02:47:35;;;;;;;30.70;18.25;;;2.40;99.90;;;;;;5016989;28;20120;-95
2021/12/03 02:50:01;;;;;;;29.80;16.55;;;2.40;99.90;;;;;;5017179;28;20112;-94
2021/12/03 02:52:27;;;;;;;31.05;17.27;;;2.40;99.90;;;;;;5019579;28;20025;-94
2021/12/03 02:54:52;;;;;;;33.85;16.33;;;2.40;99.90;;;;;;5018368;28;20055;-94
2021/12/03 02:57:18;;;;;;;30.92;16.33;;;2.30;99.90;;;;;;5016779;28;20026;-94
2021/12/03 02:59:44;;;;;;;29.38;16.55;;;2.30;99.90;;;;;;5016765;28;20051;-94
2021/12/03 03:02:09;;;;;;;33.72;17.15;;;2.20;99.90;;;;;;5016874;28;20486;-94
2021/12/03 03:04:35;;;;;;;32.55;16.90;;;2.20;99.90;;;;;;5016884;28;20028;-95
2021/12/03 03:07:01;;;;;;;38.47;22.92;;;2.20;99.90;;;;;;5016750;28;20079;-93
2021/12/03 03:09:27;;;;;;;40.70;26.38;;;2.20;99.90;;;;;;5016595;28;20030;-93
2021/12/03 03:11:53;;;;;;;34.63;21.30;;;2.20;99.90;;;;;;5016721;28;20053;-94
2021/12/03 03:14:19;;;;;;;31.67;20.20;;;2.10;99.90;;;;;;5017393;28;20128;-94
2021/12/03 03:16:46;;;;;;;34.20;21.30;;;2.10;99.90;;;;;;5017555;28;20052;-93
2021/12/03 03:19:20;;;;;;;32.30;20.63;;;2.10;99.90;;;;;;5016574;28;20543;-93
2021/12/03 03:21:47;;;;;;;33.95;20.65;;;2.10;99.90;;;;;;5016543;28;20103;-94
2021/12/03 03:24:14;;;;;;;37.85;24.05;;;2.10;99.90;;;;;;5016629;28;20113;-93
2021/12/03 03:26:43;;;;;;;43.05;25.73;;;2.10;99.90;;;;;;5016655;28;20017;-93
2021/12/03 03:29:11;;;;;;;42.33;23.75;;;2.10;99.90;;;;;;5016674;28;20445;-93
2021/12/03 03:31:38;;;;;;;41.13;23.55;;;2.10;99.90;;;;;;5030476;28;20493;-93
2021/12/03 03:34:05;;;;;;;41.38;22.08;;;2.10;99.90;;;;;;5036424;28;20035;-93
2021/12/03 03:36:36;;;;;;;44.58;24.05;;;2.10;99.90;;;;;;5038221;28;20475;-93
2021/12/03 03:39:03;;;;;;;;;;;2.20;99.90;;;;;;5037012;28;20029;-93
2021/12/03 03:41:28;;;;;;;50.83;28.77;;;2.10;99.90;;;;;;5036202;28;20437;-93
2021/12/03 03:43:54;;;;;;;49.75;29.60;;;2.20;99.90;;;;;;5036265;28;20064;-93
2021/12/03 03:46:20;;;;;;;51.50;29.60;;;2.20;99.90;;;;;;5027389;28;20021;-93
2021/12/03 03:48:46;;;;;;;52.75;30.30;;;2.20;99.90;;;;;;5016377;28;20476;-93
2021/12/03 03:51:12;;;;;;;49.55;29.48;;;2.20;99.90;;;;;;5016366;28;20022;-93
2021/12/03 03:53:40;;;;;;;46.85;26.45;;;2.30;99.90;;;;;;5016270;28;20029;-94
2021/12/03 03:56:08;;;;;;;48.63;28.75;;;2.30;99.90;;;;;;5016439;28;20021;-93
2021/12/03 03:58:33;;;;;;;44.65;25.85;;;2.30;99.90;;;;;;5018924;28;20034;-94
2021/12/03 04:00:59;;;;;;;44.60;26.30;;;2.40;99.90;;;;;;5016517;28;20029;-94
2021/12/03 04:03:26;;;;;;;47.17;27.52;;;2.40;99.90;;;;;;5016214;28;20025;-94
2021/12/03 04:05:53;;;;;;;59.47;36.75;;;2.40;99.90;;;;;;5018902;28;20114;-94
2021/12/03 04:08:18;;;;;;;57.30;34.33;;;2.40;99.90;;;;;;5017967;28;20021;-93
2021/12/03 04:10:46;;;;;;;50.38;29.08;;;2.40;99.90;;;;;;5019686;28;20079;-94
2021/12/03 04:13:11;;;;;;;49.75;28.38;;;2.40;99.90;;;;;;5019776;28;20026;-94
2021/12/03 04:15:37;;;;;;;46.38;27.83;;;2.40;99.90;;;;;;5019663;28;20059;-93
2021/12/03 04:18:03;;;;;;;54.00;29.70;;;2.40;99.90;;;;;;5019841;28;20036;-94
2021/12/03 04:20:29;;;;;;;53.47;29.10;;;2.50;99.90;;;;;;5022044;28;20026;-93
2021/12/03 04:22:55;;;;;;;59.53;30.80;;;2.40;99.90;;;;;;5019793;28;20022;-94
2021/12/03 04:25:22;;;;;;;52.88;28.08;;;2.50;99.90;;;;;;5019544;28;20044;-94
2021/12/03 04:27:50;;;;;;;54.80;29.13;;;2.50;99.90;;;;;;5019496;28;20017;-93
2021/12/03 04:30:22;;;;;;;59.90;30.60;;;2.50;99.90;;;;;;5019366;28;20030;-93
2021/12/03 04:32:48;;;;;;;57.83;32.22;;;2.40;99.90;;;;;;5020643;28;20060;-93
2021/12/03 04:35:15;;;;;;;57.30;28.88;;;2.50;99.90;;;;;;5019471;28;20025;-93
2021/12/03 04:37:40;;;;;;;53.50;28.98;;;2.50;99.90;;;;;;5019288;28;20120;-94
2021/12/03 04:40:09;;;;;;;48.55;25.60;;;2.50;99.90;;;;;;5020211;28;20108;-93
2021/12/03 04:42:35;;;;;;;58.13;31.25;;;2.50;99.90;;;;;;5021208;28;20488;-93
2021/12/03 04:45:01;;;;;;;42.38;24.73;;;2.50;99.90;;;;;;5019354;28;20037;-94
2021/12/03 04:47:27;;;;;;;45.15;24.70;;;2.50;99.90;;;;;;5019195;28;20104;-90
2021/12/03 04:49:53;;;;;;;54.63;26.48;;;2.50;99.90;;;;;;5030467;28;20387;-89
2021/12/03 04:52:18;;;;;;;56.85;26.77;;;2.50;99.90;;;;;;5038431;28;20427;-89
2021/12/03 04:54:44;;;;;;;72.47;33.75;;;2.50;99.90;;;;;;5038576;28;20021;-89
2021/12/03 04:57:10;;;;;;;47.88;26.33;;;2.50;99.90;;;;;;5042901;28;20381;-89
2021/12/03 04:59:36;;;;;;;38.15;23.52;;;2.50;99.90;;;;;;5042673;28;20048;-89
2021/12/03 05:02:02;;;;;;;47.13;25.40;;;2.60;99.90;;;;;;5024172;28;20068;-89
2021/12/03 05:04:35;;;;;;;42.35;23.95;;;2.60;99.90;;;;;;5023929;28;20022;-88
2021/12/03 05:09:29;;;;;;;38.30;22.80;;;2.50;99.90;;;;;;5036753;28;20037;-90
2021/12/03 05:11:55;;;;;;;39.17;20.10;;;2.50;99.90;;;;;;5034834;28;20057;-90
2021/12/03 05:14:21;;;;;;;42.90;20.38;;;2.60;99.90;;;;;;5018552;28;20428;-89
2021/12/03 05:16:48;;;;;;;38.35;20.05;;;2.60;99.90;;;;;;5024213;28;20029;-88
2021/12/03 05:19:15;;;;;;;37.33;19.60;;;2.60;99.90;;;;;;5023270;28;20029;-89
2021/12/03 05:21:42;;;;;;;35.85;19.00;;;2.60;99.90;;;;;;5028607;28;20392;-87
2021/12/03 05:24:08;;;;;;;37.05;20.52;;;2.60;99.90;;;;;;5038278;28;20017;-86
2021/12/03 05:26:35;;;;;;;29.67;20.02;;;2.50;99.90;;;;;;5054662;28;20087;-91
2021/12/03 05:29:00;;;;;;;39.80;22.60;;;2.50;99.90;;;;;;5019082;28;20036;-90
2021/12/03 05:31:26;;;;;;;47.38;27.70;;;2.50;99.90;;;;;;5017888;28;20025;-88
2021/12/03 05:33:52;;;;;;;41.85;23.75;;;2.60;99.90;;;;;;5032365;28;20064;-87
2021/12/03 05:36:18;;;;;;;38.83;22.50;;;2.60;99.90;;;;;;5055646;28;20422;-89
2021/12/03 05:38:43;;;;;;;36.80;23.70;;;2.60;99.90;;;;;;5031566;28;20049;-89
2021/12/03 05:41:09;;;;;;;34.50;20.05;;;2.60;99.90;;;;;;5017713;28;20482;-90
2021/12/03 05:43:35;;;;;;;32.33;20.23;;;2.60;99.90;;;;;;5030430;28;20029;-89
2021/12/03 05:46:00;;;;;;;33.22;20.05;;;2.60;99.90;;;;;;5021449;28;20108;-89
2021/12/03 05:48:26;;;;;;;39.05;23.35;;;2.60;99.90;;;;;;5029182;28;20025;-88
2021/12/03 05:50:52;;;;;;;44.03;26.48;;;2.60;99.90;;;;;;5032882;28;20036;-90
2021/12/03 05:53:17;;;;;;;53.28;30.08;;;2.60;99.90;;;;;;5033918;28;20029;-88
2021/12/03 05:55:43;;;;;;;49.45;29.08;;;2.50;99.90;;;;;;5028837;28;20036;-89
2021/12/03 05:58:09;;;;;;;59.53;33.97;;;2.50;99.90;;;;;;5037405;28;20028;-90
2021/12/03 06:00:39;;;;;;;63.53;33.58;;;2.50;99.90;;;;;;5032625;28;20511;-88
2021/12/03 06:03:04;;;;;;;60.15;34.25;;;2.50;99.90;;;;;;5017570;28;20028;-88
2021/12/03 06:05:31;;;;;;;55.63;34.05;;;2.50;99.90;;;;;;5017109;28;20026;-88
2021/12/03 06:07:57;;;;;;;58.63;33.13;;;2.60;99.90;;;;;;5032866;28;20025;-88
2021/12/03 06:10:24;;;;;;;49.38;30.13;;;2.50;99.90;;;;;;5035886;28;20049;-89
2021/12/03 06:12:50;;;;;;;53.47;31.27;;;2.50;99.90;;;;;;5036191;28;20468;-90
2021/12/03 06:15:16;;;;;;;50.05;31.10;;;2.60;99.90;;;;;;5036149;28;20455;-90
2021/12/03 06:17:42;;;;;;;47.22;28.50;;;2.60;99.90;;;;;;5036015;28;20052;-87
2021/12/03 06:20:09;;;;;;;53.42;29.58;;;2.60;99.90;;;;;;5036075;28;20523;-90
2021/12/03 06:22:35;;;;;;;52.92;27.92;;;2.60;99.90;;;;;;5053835;28;20036;-87
2021/12/03 06:25:01;;;;;;;71.32;35.60;;;2.60;99.90;;;;;;5036121;28;20021;-90
2021/12/03 06:27:29;;;;;;;73.72;36.30;;;2.70;99.90;;;;;;5036259;28;20049;-90
2021/12/03 06:29:56;;;;;;;90.43;41.17;;;2.60;99.90;;;;;;5053390;28;20455;-90
2021/12/03 06:32:22;;;;;;;89.32;43.63;;;2.70;99.90;;;;;;5035910;28;20025;-89
2021/12/03 06:34:48;;;;;;;99.25;49.13;;;2.70;99.90;;;;;;5036079;28;20027;-90
2021/12/03 06:37:14;;;;;;;100.10;50.92;;;2.70;99.90;;;;;;5035932;28;20521;-90
2021/12/03 06:39:39;;;;;;;102.68;49.35;;;2.70;99.90;;;;;;5036390;28;20025;-90
2021/12/03 06:42:05;;;;;;;98.95;46.30;;;2.80;99.90;;;;;;5036162;28;20037;-90
2021/12/03 06:44:31;;;;;;;90.97;45.00;;;2.80;99.90;;;;;;5036277;28;20111;-89
2021/12/03 06:46:57;;;;;;;78.93;42.15;;;2.80;99.90;;;;;;5038279;28;20108;-84
2021/12/03 06:49:23;;;;;;;69.43;36.00;;;2.90;99.90;;;;;;5035823;28;20021;-83
2021/12/03 06:51:51;;;;;;;66.32;35.00;;;3.00;99.90;;;;;;5035347;28;20079;-84
2021/12/03 06:54:25;;;;;;;45.03;25.77;;;3.00;99.90;;;;;;5053048;28;20028;-84
2021/12/03 06:56:52;;;;;;;37.88;21.02;;;3.10;99.90;;;;;;5053332;28;20447;-84
2021/12/03 06:59:23;;;;;;;34.95;20.20;;;3.20;99.90;;;;;;5035369;28;20021;-86
2021/12/03 07:01:50;;;;;;;42.67;24.00;;;3.30;99.90;;;;;;5053355;28;20047;-84
2021/12/03 07:04:16;;;;;;;44.40;27.08;;;3.30;99.90;;;;;;5052964;28;20159;-83
2021/12/03 07:06:42;;;;;;;48.05;29.75;;;3.40;99.90;;;;;;5052763;28;20021;-82
2021/12/03 07:09:09;;;;;;;46.25;30.05;;;3.40;99.90;;;;;;5035276;28;20096;-83
2021/12/03 07:11:35;;;;;;;47.45;28.13;;;3.60;99.90;;;;;;5052981;28;20053;-83
2021/12/03 07:14:01;;;;;;;39.28;23.88;;;3.60;99.90;;;;;;5035223;28;20098;-83
2021/12/03 07:16:27;;;;;;;36.90;24.63;;;3.70;99.90;;;;;;5035085;28;20025;-83
2021/12/03 07:18:53;;;;;;;34.33;23.30;;;3.70;99.90;;;;;;5052774;28;20029;-83
2021/12/03 07:21:19;;;;;;;31.77;21.50;;;3.80;99.90;;;;;;5052681;28;20519;-83
2021/12/03 07:23:45;;;;;;;28.08;17.00;;;3.80;99.90;;;;;;5035264;28;20494;-83
2021/12/03 07:26:11;;;;;;;31.17;19.77;;;3.90;99.90;;;;;;5035044;28;20112;-82
2021/12/03 07:28:36;;;;;;;34.90;22.05;;;4.00;99.90;;;;;;5034906;28;20023;-82
2021/12/03 07:31:02;;;;;;;32.45;21.48;;;4.10;99.90;;;;;;5034970;28;20025;-83
2021/12/03 07:33:30;;;;;;;30.83;21.38;;;4.10;99.90;;;;;;5052921;28;20031;-82
2021/12/03 07:35:57;;;;;;;35.13;22.33;;;4.20;99.90;;;;;;5034889;28;20031;-83
2021/12/03 07:38:22;;;;;;;36.00;23.75;;;4.30;99.90;;;;;;5034639;28;20021;-83
2021/12/03 07:40:49;;;;;;;37.25;25.10;;;4.30;99.90;;;;;;5034766;28;20078;-82
2021/12/03 07:43:18;;;;;;;34.72;23.65;;;4.30;99.90;;;;;;5036796;28;20052;-82
2021/12/03 07:45:48;;;;;;;33.27;23.33;;;4.40;99.90;;;;;;5056466;28;20025;-82
2021/12/03 07:48:14;;;;;;;43.25;26.92;;;4.40;99.90;;;;;;5038891;28;20063;-82
2021/12/03 07:50:41;;;;;;;36.63;24.92;;;4.50;99.90;;;;;;5038443;28;20033;-82
2021/12/03 07:53:12;;;;;;;32.92;22.33;;;4.50;99.90;;;;;;5056744;28;20029;-83
2021/12/03 07:55:38;;;;;;;34.25;23.25;;;4.60;99.90;;;;;;5038891;28;20033;-83
2021/12/03 07:58:05;;;;;;;33.65;22.70;;;4.70;99.90;;;;;;5056668;28;20033;-83
2021/12/03 08:00:31;;;;;;;34.90;21.75;;;4.70;99.90;;;;;;5038526;28;20441;-82
2021/12/03 08:02:57;;;;;;;32.78;22.15;;;4.80;99.90;;;;;;5038166;28;20426;-83
2021/12/03 08:05:23;;;;;;;37.78;22.50;;;5.00;99.90;;;;;;5056512;28;20024;-82
2021/12/03 08:07:50;;;;;;;34.28;22.67;;;5.00;99.90;;;;;;5056354;28;20021;-82
2021/12/03 08:10:16;;;;;;;36.88;23.50;;;5.10;99.90;;;;;;5038284;28;20052;-82
2021/12/03 08:12:44;;;;;;;39.42;24.23;;;5.20;99.90;;;;;;5038725;28;20021;-83
2021/12/03 08:15:11;;;;;;;39.40;24.83;;;5.40;99.90;;;;;;5038314;28;20460;-82
2021/12/03 08:17:37;;;;;;;43.78;27.27;;;5.40;99.90;;;;;;5038262;28;20033;-82
2021/12/03 08:20:04;;;;;;;38.72;23.92;;;5.50;99.90;;;;;;5038100;28;20078;-82
2021/12/03 08:22:31;;;;;;;39.88;24.10;;;5.60;99.90;;;;;;5055704;28;20028;-82
2021/12/03 08:24:56;;;;;;;41.50;24.55;;;5.60;99.90;;;;;;5055639;28;20025;-82
2021/12/03 08:27:22;;;;;;;35.72;23.33;;;5.70;99.90;;;;;;5037725;28;20029;-82
2021/12/03 08:29:48;;;;;;;35.55;23.48;;;5.70;99.90;;;;;;5037728;28;20455;-82
2021/12/03 08:32:13;;;;;;;39.13;23.70;;;5.70;99.90;;;;;;5038099;28;20029;-82
2021/12/03 08:34:39;;;;;;;41.90;24.20;;;5.80;99.90;;;;;;5037699;28;20021;-83
2021/12/03 08:37:08;;;;;;;40.55;24.23;;;5.90;99.90;;;;;;5037719;28;20025;-82
2021/12/03 08:39:33;;;;;;;36.38;24.42;;;6.00;99.90;;;;;;5056007;28;20098;-84
2021/12/03 08:42:00;;;;;;;37.97;25.40;;;6.00;99.90;;;;;;5037885;28;20061;-84
2021/12/03 08:44:26;;;;;;;39.45;25.95;;;6.10;99.90;;;;;;5037703;28;20029;-84
2021/12/03 08:47:02;;;;;;;33.45;22.60;;;6.30;99.90;;;;;;5037472;28;20032;-82
2021/12/03 08:49:33;;;;;;;39.60;23.73;;;6.60;99.90;;;;;;5037956;28;20387;-83
2021/12/03 08:57:13;;;;;;;37.17;22.38;;;6.60;99.90;;;;;;5055741;28;20040;-82
2021/12/03 08:59:39;;;;;;;35.15;21.50;;;6.50;99.90;;;;;;5055448;28;20029;-82
2021/12/03 09:02:05;;;;;;;35.83;23.00;;;6.50;99.90;;;;;;5054792;28;20537;-83
2021/12/03 09:04:33;;;;;;;40.97;25.25;;;6.50;99.90;;;;;;5037415;28;20151;-82
2021/12/03 09:07:00;;;;;;;40.63;24.60;;;6.60;99.90;;;;;;5055325;28;20530;-82
2021/12/03 09:09:27;;;;;;;40.38;23.25;;;6.70;99.90;;;;;;5055372;28;20037;-83
2021/12/03 09:11:54;;;;;;;31.00;21.75;;;6.80;99.90;;;;;;5037274;28;20055;-83
2021/12/03 09:14:35;;;;;;;32.90;20.73;;;6.80;99.90;;;;;;5055001;28;20025;-82
2021/12/03 09:20:25;;;;;;;39.67;26.08;;;7.00;99.90;;;;;;5055339;28;20541;-82
2021/12/03 09:22:43;;;;;;;31.35;20.58;;;7.00;99.90;;;;;;5039901;28;20044;-82
2021/12/03 09:25:13;;;;;;;30.23;20.00;;;7.20;99.90;;;;;;5021605;28;20025;-82
2021/12/03 09:27:38;;;;;;;29.98;18.83;;;7.40;99.90;;;;;;5037400;28;20104;-82
2021/12/03 09:30:07;;;;;;;33.78;19.77;;;7.40;99.90;;;;;;5036769;28;20125;-82
2021/12/03 09:32:33;;;;;;;27.80;18.27;;;7.50;99.90;;;;;;5037084;28;20025;-82
2021/12/03 09:35:13;;;;;;;;;;;7.60;99.90;;;;;;5055042;28;20467;-82
2021/12/03 09:37:40;;;;;;;26.80;16.20;;;7.60;99.90;;;;;;5036923;28;19905;-82
2021/12/03 09:40:08;;;;;;;27.50;18.25;;;7.60;99.90;;;;;;5036893;28;20108;-82
2021/12/03 09:42:38;;;;;;;32.60;19.70;;;7.60;99.90;;;;;;5037036;28;20025;-82
2021/12/03 09:45:05;;;;;;;30.63;19.08;;;7.70;99.90;;;;;;5021344;28;20040;-82
2021/12/03 09:47:31;;;;;;;29.40;17.70;;;7.70;99.90;;;;;;5054516;28;20100;-82
2021/12/03 09:49:58;;;;;;;31.58;16.75;;;7.70;99.90;;;;;;5036776;28;20033;-82
2021/12/03 09:55:07;;;;;;;33.50;16.92;;;7.80;99.90;;;;;;5054529;28;20113;-82
2021/12/03 10:00:28;;;;;;;26.55;16.60;;;8.10;99.90;;;;;;5054467;28;20379;-82
2021/12/03 10:09:37;;;;;;;19.17;12.82;;;8.20;99.90;;;;;;5054216;28;20021;-82
2021/12/03 10:22:35;;;;;;;19.88;13.13;;;8.50;99.90;;;;;;5054642;28;20017;-89
2021/12/03 10:38:24;;;;;;;17.90;10.93;;;9.60;99.90;;;;;;5055376;28;20595;-89
2021/12/03 10:54:33;;;;;;;18.17;8.13;;;9.70;99.90;;;;;;5054878;28;20025;-89
2021/12/03 11:19:04;;;;;;;17.05;8.35;;;9.60;99.90;;;;;;5058069;28;20029;-88
2021/12/03 11:28:10;;;;;;;14.98;7.60;;;9.70;99.90;;;;;;5057956;28;20032;-89
2021/12/03 12:04:51;;;;;;;20.00;11.07;;;9.20;99.90;;;;;;5057331;28;20031;-89
2021/12/03 14:00:11;;;;;;;22.23;12.07;;;7.30;99.90;;;;;;5055550;28;20021;-89
2021/12/03 14:42:47;;;;;;;36.58;25.55;;;6.10;99.90;;;;;;5029981;28;20026;-89
2021/12/03 14:56:20;;;;;;;42.00;26.75;;;5.50;99.90;;;;;;5092253;28;20024;-88
2021/12/03 14:58:51;;;;;;;41.78;26.55;;;5.40;99.90;;;;;;5092494;28;20027;-93
2021/12/03 15:04:01;;;;;;;48.08;30.52;;;5.30;99.90;;;;;;5099954;28;20107;-94
2021/12/03 15:19:34;;;;;;;60.95;32.90;;;5.00;99.90;;;;;;5095049;28;20362;-92
2021/12/03 15:25:06;;;;;;;65.03;33.65;;;4.60;99.90;;;;;;5097140;28;20394;-93
2021/12/03 16:03:35;;;;;;;23.00;16.00;;;3.00;99.90;;;;;;5135863;23;20066;-93
2021/12/03 16:06:47;;;;;;;26.88;18.35;;;2.90;99.90;;;;;;4967102;28;20031;-94
2021/12/03 16:08:51;;;;;;;27.08;18.77;;;2.90;99.90;;;;;;4974071;28;20039;-94
2021/12/03 16:11:32;;;;;;;25.38;16.65;;;2.90;99.90;;;;;;4969922;28;20031;-92
2021/12/03 16:14:38;;;;;;;27.98;18.65;;;2.90;99.90;;;;;;4966300;28;20031;-93
2021/12/03 16:17:07;;;;;;;24.88;16.25;;;2.80;99.90;;;;;;4978534;28;20019;-92
2021/12/03 16:43:57;;;;;;;34.75;24.90;;;2.30;99.90;;;;;;5233740;23;21229;-93
2021/12/03 16:51:50;;;;;;;21.45;16.60;;;2.40;99.90;;;;;;4970624;28;20038;-96
2021/12/03 16:54:23;;;;;;;21.30;15.77;;;2.20;99.90;;;;;;4948367;29;20027;-91
2021/12/03 16:56:51;;;;;;;22.20;17.38;;;2.20;99.90;;;;;;4943252;29;20031;-92
2021/12/03 16:59:18;;;;;;;21.83;18.75;;;2.20;99.90;;;;;;4942282;29;20551;-92
2021/12/03 17:01:57;;;;;;;25.23;19.25;;;2.10;99.90;;;;;;4942057;29;20039;-92
2021/12/03 17:18:33;;;;;;;29.58;20.33;;;2.00;99.90;;;;;;4978270;28;20453;-92
2021/12/03 17:24:48;;;;;;;32.60;23.17;;;2.00;99.90;;;;;;4978829;28;20027;-93
2021/12/03 17:56:50;;;;;;;19.88;15.07;;;2.00;99.90;;;;;;4928568;29;20028;-95
2021/12/03 18:56:04;;;;;;;39.20;27.38;;;1.90;99.90;;;;;;4957745;29;20023;-93
2021/12/03 18:58:31;;;;;;;43.58;29.25;;;1.90;99.90;;;;;;4941041;29;20034;-93
2021/12/03 19:00:58;;;;;;;38.90;26.17;;;1.90;99.90;;;;;;4940668;29;20493;-94
2021/12/03 19:03:53;;;;;;;39.70;27.83;;;1.90;99.90;;;;;;4940224;29;20023;-94
2021/12/03 19:06:26;;;;;;;59.45;37.72;;;1.80;99.90;;;;;;4940538;29;20039;-94
2021/12/03 19:08:55;;;;;;;83.47;52.63;;;1.90;99.90;;;;;;4939744;29;20042;-93
2021/12/03 19:11:26;;;;;;;64.60;39.97;;;1.90;99.90;;;;;;4940753;29;20532;-92
2021/12/03 19:13:52;;;;;;;64.70;37.45;;;1.80;99.90;;;;;;4926321;29;20031;-93
2021/12/03 19:16:22;;;;;;;58.22;34.80;;;1.80;99.90;;;;;;4947284;29;20050;-94
2021/12/03 19:18:51;;;;;;;59.80;36.47;;;1.80;99.90;;;;;;4945512;29;20027;-93
2021/12/03 19:21:26;;;;;;;51.65;31.55;;;1.80;99.90;;;;;;4944387;29;20082;-93
2021/12/03 19:27:13;;;;;;;47.75;31.42;;;1.80;99.90;;;;;;4960221;29;20082;-92
2021/12/03 19:29:42;;;;;;;50.78;30.83;;;1.80;99.90;;;;;;4942671;29;20023;-92
2021/12/03 19:32:09;;;;;;;50.03;32.90;;;1.80;99.90;;;;;;4942936;29;20027;-93
2021/12/03 19:34:34;;;;;;;51.08;32.80;;;1.80;99.90;;;;;;4942559;29;20031;-92
2021/12/03 19:37:01;;;;;;;55.30;33.55;;;1.80;99.90;;;;;;4943259;29;20039;-93
2021/12/03 19:39:26;;;;;;;53.47;33.65;;;1.80;99.90;;;;;;4942641;29;20031;-92
2021/12/03 19:42:08;;;;;;;68.75;42.05;;;1.80;99.90;;;;;;4942214;29;20028;-92
2021/12/03 19:44:48;;;;;;;91.75;56.47;;;1.80;99.90;;;;;;4952156;28;20047;-91
2021/12/03 19:47:14;;;;;;;64.78;40.33;;;1.80;99.90;;;;;;4961392;28;20033;-92
2021/12/03 19:52:31;;;;;;;65.65;42.40;;;1.80;99.90;;;;;;4978353;28;20023;-91
2021/12/03 19:54:55;;;;;;;50.35;31.98;;;1.80;99.90;;;;;;4977819;28;20367;-92
2021/12/03 19:57:24;;;;;;;52.13;32.97;;;1.80;99.90;;;;;;4961314;28;20031;-94
2021/12/03 19:59:51;;;;;;;56.83;33.83;;;1.80;99.90;;;;;;4961277;28;20118;-91
2021/12/03 20:02:17;;;;;;;58.45;34.33;;;1.70;99.90;;;;;;4961067;28;20058;-92
2021/12/03 20:04:43;;;;;;;50.15;31.17;;;1.70;99.90;;;;;;4961170;28;20434;-92
2021/12/03 20:07:09;;;;;;;47.70;28.75;;;1.70;99.90;;;;;;4960859;28;20023;-93
2021/12/03 20:09:42;;;;;;;51.58;28.77;;;1.70;99.90;;;;;;4961204;28;20050;-92
2021/12/03 20:12:13;;;;;;;55.22;31.23;;;1.60;99.90;;;;;;4960842;28;20362;-91
2021/12/03 20:14:41;;;;;;;58.03;34.67;;;1.60;99.90;;;;;;4960657;28;20478;-92
2021/12/03 20:17:21;;;;;;;51.08;30.23;;;1.60;99.90;;;;;;4960816;28;20027;-90
2021/12/03 20:19:51;;;;;;;52.20;29.88;;;1.60;99.90;;;;;;4960880;28;20039;-91
2021/12/03 20:25:20;;;;;;;54.50;30.40;;;1.50;99.90;;;;;;4977746;28;20027;-92
2021/12/03 20:27:51;;;;;;;54.80;29.92;;;1.50;99.90;;;;;;4960406;28;20037;-92
2021/12/03 20:38:18;;;;;;;42.47;26.77;;;1.50;99.90;;;;;;4957953;29;20028;-91
2021/12/03 20:40:50;;;;;;;43.10;26.65;;;1.50;99.90;;;;;;4941058;29;20035;-92
2021/12/03 20:48:25;;;;;;;39.13;25.17;;;1.50;99.90;;;;;;4958040;29;20031;-92
2021/12/03 21:09:52;;;;;;;35.78;22.27;;;1.50;99.90;;;;;;4957681;29;20049;-92
2021/12/03 21:15:02;;;;;;;32.90;21.50;;;1.50;99.90;;;;;;4957514;29;20037;-92
2021/12/03 21:17:36;;;;;;;29.50;19.67;;;1.50;99.90;;;;;;4940291;29;20375;-92
2021/12/03 21:22:34;;;;;;;29.60;19.10;;;1.50;99.90;;;;;;4957396;29;20087;-92